Time;durP1;ratioP1;P1;durP2;ratioP2;P2;SDS_P1;SDS_P2;PMS_P1;PMS_P2;Temp;Humidity;BMP_temperature;BMP_pressure;BME280_temperature;BME280_humidity;BME280_pressure;Samples;Min_cycle;Max_cycle;Signal;HPM_P1;HPM_P2
2023/12/10 00:00:09;;;;;;;63;36.8;;;;;;;-5.31;88.26;;;;;
2023/12/10 00:11:09;;;;;;;63;36.8;;;;;;;-5.32;88.35;;;;;
2023/12/10 00:21:09;;;;;;;63;36.8;;;;;;;-5.42;87.22;;;;;
2023/12/10 00:32:09;;;;;;;58.2;32.1;;;;;;;-5.47;88.19;;;;;
2023/12/10 00:43:11;;;;;;;58.2;32.1;;;;;;;-5.39;88.19;;;;;
2023/12/10 00:54:09;;;;;;;43;27.7;;;;;;;-5.73;87.64;;;;;
2023/12/10 01:04:09;;;;;;;43;27.7;;;;;;;-5.75;87.32;;;;;
2023/12/10 01:14:09;;;;;;;43;27.7;;;;;;;-5.82;86.97;;;;;
2023/12/10 01:25:09;;;;;;;37.7;25.9;;;;;;;-6.05;87.09;;;;;
2023/12/10 01:35:10;;;;;;;37.7;25.9;;;;;;;-6.08;87.17;;;;;
2023/12/10 01:45:09;;;;;;;37.7;25.9;;;;;;;-6.06;87.54;;;;;
2023/12/10 01:56:09;;;;;;;42.4;24;;;;;;;-5.84;87.84;;;;;
2023/12/10 02:06:09;;;;;;;42.4;24;;;;;;;-5.66;88.28;;;;;
2023/12/10 02:17:09;;;;;;;42.4;24;;;;;;;-5.43;88.62;;;;;
2023/12/10 02:27:09;;;;;;;38.4;20.1;;;;;;;-5.28;87.99;;;;;
2023/12/10 02:37:09;;;;;;;38.4;20.1;;;;;;;-5.37;85.37;;;;;
2023/12/10 02:47:09;;;;;;;38.4;20.1;;;;;;;-4.89;88.13;;;;;
2023/12/10 02:58:09;;;;;;;33.3;20.3;;;;;;;-4.68;88.34;;;;;
2023/12/10 03:08:09;;;;;;;33.3;20.3;;;;;;;-4.76;88.18;;;;;
2023/12/10 03:18:09;;;;;;;33.3;20.3;;;;;;;-4.52;88.68;;;;;
2023/12/10 03:29:09;;;;;;;30;17.7;;;;;;;-4.35;87.94;;;;;
2023/12/10 03:40:09;;;;;;;30;17.7;;;;;;;-4.34;88.19;;;;;
2023/12/10 03:50:09;;;;;;;30;17.7;;;;;;;-4.44;87.19;;;;;
2023/12/10 04:01:09;;;;;;;28.6;16.3;;;;;;;-4.19;88.32;;;;;
2023/12/10 04:11:09;;;;;;;28.6;16.3;;;;;;;-4.13;88.23;;;;;
2023/12/10 04:22:09;;;;;;;32.1;18.3;;;;;;;-3.88;88.9;;;;;
2023/12/10 04:33:09;;;;;;;32.1;18.3;;;;;;;-4.03;87.59;;;;;
2023/12/10 04:43:09;;;;;;;32.1;18.3;;;;;;;-4.05;87.53;;;;;
2023/12/10 04:53:09;;;;;;;45.5;27.6;;;;;;;-3.87;88.55;;;;;
2023/12/10 05:04:09;;;;;;;45.5;27.6;;;;;;;-3.75;88.39;;;;;
2023/12/10 05:15:09;;;;;;;45.5;27.6;;;;;;;-3.52;88.62;;;;;
2023/12/10 05:26:09;;;;;;;40.4;24.6;;;;;;;-3.42;88.7;;;;;
2023/12/10 05:36:09;;;;;;;40.4;24.6;;;;;;;-3.44;88.25;;;;;
2023/12/10 05:47:09;;;;;;;40.4;24.6;;;;;;;-3.42;88.62;;;;;
2023/12/10 05:58:09;;;;;;;34.9;23.5;;;;;;;-3.33;88.62;;;;;
2023/12/10 06:08:09;;;;;;;34.9;23.5;;;;;;;-3.41;87.74;;;;;
2023/12/10 06:18:09;;;;;;;34.9;23.5;;;;;;;-3.21;88.68;;;;;
2023/12/10 06:28:09;;;;;;;45.5;29.7;;;;;;;-3.25;87.96;;;;;
2023/12/10 06:39:10;;;;;;;45.5;29.7;;;;;;;-2.89;89.44;;;;;
2023/12/10 06:49:09;;;;;;;45.5;29.7;;;;;;;-2.58;89.4;;;;;
2023/12/10 07:00:10;;;;;;;48.7;29.4;;;;;;;-2.46;88.66;;;;;
2023/12/10 07:10:09;;;;;;;48.7;29.4;;;;;;;-2.33;87.5;;;;;
2023/12/10 07:21:09;;;;;;;42.6;27;;;;;;;-2.11;88.57;;;;;
2023/12/10 07:32:09;;;;;;;42.6;27;;;;;;;-1.93;88.9;;;;;
2023/12/10 07:42:10;;;;;;;42.6;27;;;;;;;-1.87;88.04;;;;;
2023/12/10 07:53:09;;;;;;;64.8;37.9;;;;;;;-1.32;89.48;;;;;
2023/12/10 08:04:09;;;;;;;64.8;37.9;;;;;;;-0.88;89.54;;;;;
2023/12/10 08:14:09;;;;;;;64.8;37.9;;;;;;;-0.64;89.31;;;;;
2023/12/10 08:25:10;;;;;;;42.4;25.3;;;;;;;-0.35;88.43;;;;;
2023/12/10 08:36:09;;;;;;;42.4;25.3;;;;;;;-0.14;88.39;;;;;
2023/12/10 08:46:10;;;;;;;42.4;25.3;;;;;;;0.06;88.65;;;;;
2023/12/10 08:56:09;;;;;;;54;33.2;;;;;;;0.3;89.78;;;;;
2023/12/10 09:07:09;;;;;;;54;33.2;;;;;;;0.42;89.36;;;;;
2023/12/10 09:17:10;;;;;;;54;33.2;;;;;;;0.48;88.25;;;;;
2023/12/10 09:28:09;;;;;;;75.1;39.7;;;;;;;0.84;87.82;;;;;
2023/12/10 09:39:09;;;;;;;75.1;39.7;;;;;;;1.59;87.67;;;;;
2023/12/10 09:49:10;;;;;;;75.1;39.7;;;;;;;1.97;83.77;;;;;
2023/12/10 09:59:10;;;;;;;72.7;41.5;;;;;;;2.74;87.63;;;;;
2023/12/10 10:10:11;;;;;;;72.7;41.5;;;;;;;2.97;84.22;;;;;
2023/12/10 10:21:09;;;;;;;128.1;81.4;;;;;;;3.38;85.17;;;;;
2023/12/10 10:31:10;;;;;;;128.1;81.4;;;;;;;3.49;84.87;;;;;
2023/12/10 10:42:10;;;;;;;128.1;81.4;;;;;;;3.69;83.87;;;;;
2023/12/10 10:52:10;;;;;;;114.3;75;;;;;;;3.8;86.07;;;;;
2023/12/10 11:02:11;;;;;;;114.3;75;;;;;;;4.1;86.73;;;;;
2023/12/10 11:13:10;;;;;;;114.3;75;;;;;;;4.55;85.32;;;;;
2023/12/10 11:23:10;;;;;;;96.3;65.5;;;;;;;4.88;86.21;;;;;
2023/12/10 11:34:10;;;;;;;96.3;65.5;;;;;;;4.88;85.73;;;;;
2023/12/10 11:44:11;;;;;;;96.3;65.5;;;;;;;5.11;85.21;;;;;
2023/12/10 11:55:10;;;;;;;55.7;38.7;;;;;;;4.27;80.5;;;;;
2023/12/10 12:06:10;;;;;;;55.7;38.7;;;;;;;4.24;80.67;;;;;
2023/12/10 12:16:10;;;;;;;55.7;38.7;;;;;;;3.96;79.87;;;;;
2023/12/10 12:26:10;;;;;;;18.5;11.6;;;;;;;4.2;85.51;;;;;
2023/12/10 12:37:09;;;;;;;;;;;;;;;4.21;86.89;;;;;
2023/12/10 12:47:10;;;;;;;16.3;9.9;;;;;;;4.24;86.43;;;;;
2023/12/10 12:57:10;;;;;;;16.3;9.9;;;;;;;4.3;87.34;;;;;
2023/12/10 13:08:12;;;;;;;16.3;9.9;;;;;;;4.17;86.92;;;;;
2023/12/10 13:18:11;;;;;;;21.4;12.1;;;;;;;4.06;86.92;;;;;
2023/12/10 13:29:10;;;;;;;21.4;12.1;;;;;;;3.91;87.06;;;;;
2023/12/10 13:40:10;;;;;;;16.9;9.6;;;;;;;3.6;86.79;;;;;
2023/12/10 13:50:10;;;;;;;16.9;9.6;;;;;;;3.45;86.32;;;;;
2023/12/10 14:01:10;;;;;;;16.9;9.6;;;;;;;3.07;86.35;;;;;
2023/12/10 14:12:10;;;;;;;12.7;5.9;;;;;;;2.88;87.14;;;;;
2023/12/10 14:22:10;;;;;;;12.7;5.9;;;;;;;2.71;87.44;;;;;
2023/12/10 14:32:10;;;;;;;12.7;5.9;;;;;;;2.84;88.76;;;;;
2023/12/10 14:43:10;;;;;;;8.9;4.3;;;;;;;2.78;87.95;;;;;
2023/12/10 14:54:10;;;;;;;8.9;4.3;;;;;;;2.67;89.29;;;;;
2023/12/10 15:04:10;;;;;;;8.9;4.3;;;;;;;2.58;88.51;;;;;
2023/12/10 15:15:10;;;;;;;9;4.9;;;;;;;2.61;88.59;;;;;
2023/12/10 15:25:10;;;;;;;9;4.9;;;;;;;2.59;88.3;;;;;
2023/12/10 15:35:10;;;;;;;9;4.9;;;;;;;2.72;89.74;;;;;
2023/12/10 15:46:10;;;;;;;10.3;5.9;;;;;;;2.69;89.89;;;;;
2023/12/10 15:56:10;;;;;;;10.3;5.9;;;;;;;2.67;88.64;;;;;
2023/12/10 16:06:12;;;;;;;10.3;5.9;;;;;;;2.66;87.85;;;;;
2023/12/10 16:17:10;;;;;;;10.9;5.5;;;;;;;2.68;87.77;;;;;
2023/12/10 16:27:10;;;;;;;10.9;5.5;;;;;;;2.74;88.13;;;;;
2023/12/10 16:38:10;;;;;;;10.9;5.5;;;;;;;2.7;86.59;;;;;
2023/12/10 16:48:10;;;;;;;9.7;5.2;;;;;;;2.77;87.24;;;;;
2023/12/10 16:58:10;;;;;;;9.7;5.2;;;;;;;2.8;89.3;;;;;
2023/12/10 17:08:10;;;;;;;9.7;5.2;;;;;;;2.81;86.25;;;;;
2023/12/10 17:19:10;;;;;;;11.6;7;;;;;;;2.9;86.85;;;;;
2023/12/10 17:29:10;;;;;;;11.6;7;;;;;;;3.07;89.01;;;;;
2023/12/10 17:39:10;;;;;;;11.6;7;;;;;;;3.12;87.94;;;;;
2023/12/10 17:49:10;;;;;;;13;6.4;;;;;;;3.16;87.88;;;;;
2023/12/10 18:00:10;;;;;;;13;6.4;;;;;;;3.24;87.74;;;;;
2023/12/10 18:10:11;;;;;;;14.6;5.9;;;;;;;3.29;89.1;;;;;
2023/12/10 18:21:10;;;;;;;14.6;5.9;;;;;;;3.33;87.75;;;;;
2023/12/10 18:32:10;;;;;;;14.6;5.9;;;;;;;3.39;88.37;;;;;
2023/12/10 18:43:10;;;;;;;12.4;5.8;;;;;;;3.41;88.4;;;;;
2023/12/10 18:54:10;;;;;;;12.4;5.8;;;;;;;3.44;86.86;;;;;
2023/12/10 19:05:10;;;;;;;12.4;5.8;;;;;;;3.5;87.88;;;;;
2023/12/10 19:15:10;;;;;;;10.8;6.1;;;;;;;3.54;88.59;;;;;
2023/12/10 19:25:10;;;;;;;10.8;6.1;;;;;;;3.5;86.98;;;;;
2023/12/10 19:36:10;;;;;;;10.8;6.1;;;;;;;3.6;86.67;;;;;
2023/12/10 19:46:10;;;;;;;12.1;5.7;;;;;;;3.61;86.85;;;;;
2023/12/10 19:57:10;;;;;;;12.1;5.7;;;;;;;3.62;86.96;;;;;
2023/12/10 20:07:10;;;;;;;12.1;5.7;;;;;;;3.62;86.24;;;;;
2023/12/10 20:18:10;;;;;;;11.2;5.8;;;;;;;3.7;87.61;;;;;
2023/12/10 20:28:10;;;;;;;11.2;5.8;;;;;;;3.74;87.06;;;;;
2023/12/10 20:39:10;;;;;;;10.5;6.2;;;;;;;3.81;86.58;;;;;
2023/12/10 20:50:10;;;;;;;10.5;6.2;;;;;;;3.88;86.21;;;;;
2023/12/10 21:01:10;;;;;;;10.5;6.2;;;;;;;3.81;85.34;;;;;
2023/12/10 21:12:10;;;;;;;9.9;5.3;;;;;;;3.73;85.79;;;;;
2023/12/10 21:22:10;;;;;;;9.9;5.3;;;;;;;3.74;85.74;;;;;
2023/12/10 21:32:10;;;;;;;9.9;5.3;;;;;;;3.66;86.77;;;;;
2023/12/10 21:42:11;;;;;;;11.9;5.4;;;;;;;3.59;87.29;;;;;
2023/12/10 21:53:10;;;;;;;11.9;5.4;;;;;;;3.56;86.8;;;;;
2023/12/10 22:03:10;;;;;;;11.9;5.4;;;;;;;3.47;86.25;;;;;
2023/12/10 22:13:10;;;;;;;11.1;5.3;;;;;;;3.51;86.5;;;;;
2023/12/10 22:23:10;;;;;;;11.1;5.3;;;;;;;3.39;86.98;;;;;
2023/12/10 22:33:10;;;;;;;11.1;5.3;;;;;;;3.38;87.4;;;;;
2023/12/10 22:44:10;;;;;;;11.3;5.2;;;;;;;3.5;87.51;;;;;
2023/12/10 22:54:10;;;;;;;11.3;5.2;;;;;;;3.73;85.87;;;;;
2023/12/10 23:05:10;;;;;;;11.3;5.2;;;;;;;3.93;85.45;;;;;
2023/12/10 23:16:11;;;;;;;8.9;5.2;;;;;;;3.87;85.76;;;;;
2023/12/10 23:26:10;;;;;;;8.9;5.2;;;;;;;3.78;85.7;;;;;
2023/12/10 23:37:10;;;;;;;8.9;5.2;;;;;;;3.82;86.16;;;;;
2023/12/10 23:47:11;;;;;;;8.1;4.1;;;;;;;3.74;85.21;;;;;
2023/12/10 23:57:10;;;;;;;8.1;4.1;;;;;;;3.84;86.49;;;;;
